sensor_id;sensor_type;location;lat;lon;timestamp;temperature;humidity
73572;DHT22;61854;48.510;-2.770;2023-11-21T00:00:05;11.40;99.90
73572;DHT22;61854;48.510;-2.770;2023-11-21T00:02:35;11.40;99.90
73572;DHT22;61854;48.510;-2.770;2023-11-21T00:05:02;11.40;99.90
73572;DHT22;61854;48.510;-2.770;2023-11-21T00:07:28;11.40;99.90
73572;DHT22;61854;48.510;-2.770;2023-11-21T00:09:54;11.50;99.90
73572;DHT22;61854;48.510;-2.770;2023-11-21T00:12:24;11.40;99.90
73572;DHT22;61854;48.510;-2.770;2023-11-21T00:14:50;11.40;99.90
73572;DHT22;61854;48.510;-2.770;2023-11-21T00:17:16;11.40;99.90
73572;DHT22;61854;48.510;-2.770;2023-11-21T00:19:41;11.40;99.90
73572;DHT22;61854;48.510;-2.770;2023-11-21T00:22:08;11.40;99.90
73572;DHT22;61854;48.510;-2.770;2023-11-21T00:24:34;11.40;99.90
73572;DHT22;61854;48.510;-2.770;2023-11-21T00:27:00;11.40;99.90
73572;DHT22;61854;48.510;-2.770;2023-11-21T00:29:26;11.40;99.90
73572;DHT22;61854;48.510;-2.770;2023-11-21T00:31:51;11.40;99.90
73572;DHT22;61854;48.510;-2.770;2023-11-21T00:34:17;11.40;99.90
73572;DHT22;61854;48.510;-2.770;2023-11-21T00:36:43;11.40;99.90
73572;DHT22;61854;48.510;-2.770;2023-11-21T00:39:08;11.50;99.90
73572;DHT22;61854;48.510;-2.770;2023-11-21T00:41:34;11.40;99.90
73572;DHT22;61854;48.510;-2.770;2023-11-21T00:44:01;11.40;99.90
73572;DHT22;61854;48.510;-2.770;2023-11-21T00:46:28;11.40;99.90
73572;DHT22;61854;48.510;-2.770;2023-11-21T00:48:54;11.40;99.90
73572;DHT22;61854;48.510;-2.770;2023-11-21T00:51:21;11.30;99.90
73572;DHT22;61854;48.510;-2.770;2023-11-21T00:53:47;11.40;99.90
73572;DHT22;61854;48.510;-2.770;2023-11-21T00:56:13;11.40;99.90
73572;DHT22;61854;48.510;-2.770;2023-11-21T00:58:39;11.50;99.90
73572;DHT22;61854;48.510;-2.770;2023-11-21T01:01:09;11.50;99.90
73572;DHT22;61854;48.510;-2.770;2023-11-21T01:03:35;11.50;99.90
73572;DHT22;61854;48.510;-2.770;2023-11-21T01:06:00;11.50;99.90
73572;DHT22;61854;48.510;-2.770;2023-11-21T01:08:26;11.40;99.90
73572;DHT22;61854;48.510;-2.770;2023-11-21T01:10:51;11.30;99.90
73572;DHT22;61854;48.510;-2.770;2023-11-21T01:13:17;11.30;99.90
73572;DHT22;61854;48.510;-2.770;2023-11-21T01:15:43;11.30;99.90
73572;DHT22;61854;48.510;-2.770;2023-11-21T01:18:09;11.30;99.90
73572;DHT22;61854;48.510;-2.770;2023-11-21T01:20:35;11.30;99.90
73572;DHT22;61854;48.510;-2.770;2023-11-21T01:23:00;11.30;99.90
73572;DHT22;61854;48.510;-2.770;2023-11-21T01:25:26;11.20;99.90
73572;DHT22;61854;48.510;-2.770;2023-11-21T01:27:52;11.20;99.90
73572;DHT22;61854;48.510;-2.770;2023-11-21T01:30:18;11.30;99.90
73572;DHT22;61854;48.510;-2.770;2023-11-21T01:32:43;11.30;99.90
73572;DHT22;61854;48.510;-2.770;2023-11-21T01:35:09;11.30;99.90
73572;DHT22;61854;48.510;-2.770;2023-11-21T01:37:36;11.20;99.90
73572;DHT22;61854;48.510;-2.770;2023-11-21T01:40:03;11.20;99.90
73572;DHT22;61854;48.510;-2.770;2023-11-21T01:42:33;11.30;99.90
73572;DHT22;61854;48.510;-2.770;2023-11-21T01:44:59;11.30;99.90
73572;DHT22;61854;48.510;-2.770;2023-11-21T01:47:24;11.30;99.90
73572;DHT22;61854;48.510;-2.770;2023-11-21T01:49:51;11.20;99.90
73572;DHT22;61854;48.510;-2.770;2023-11-21T01:52:17;11.30;99.90
73572;DHT22;61854;48.510;-2.770;2023-11-21T01:54:43;11.30;99.90
73572;DHT22;61854;48.510;-2.770;2023-11-21T01:57:09;11.30;99.90
73572;DHT22;61854;48.510;-2.770;2023-11-21T01:59:36;11.30;99.90
73572;DHT22;61854;48.510;-2.770;2023-11-21T02:02:11;11.30;99.90
73572;DHT22;61854;48.510;-2.770;2023-11-21T02:04:37;11.30;99.90
73572;DHT22;61854;48.510;-2.770;2023-11-21T02:07:03;11.30;99.90
73572;DHT22;61854;48.510;-2.770;2023-11-21T02:09:32;11.40;99.90
73572;DHT22;61854;48.510;-2.770;2023-11-21T02:11:59;11.30;99.90
73572;DHT22;61854;48.510;-2.770;2023-11-21T02:14:26;11.30;99.90
73572;DHT22;61854;48.510;-2.770;2023-11-21T02:16:54;11.40;99.90
73572;DHT22;61854;48.510;-2.770;2023-11-21T02:19:21;11.40;99.90
73572;DHT22;61854;48.510;-2.770;2023-11-21T02:21:56;11.40;99.90
73572;DHT22;61854;48.510;-2.770;2023-11-21T02:24:26;11.30;99.90
73572;DHT22;61854;48.510;-2.770;2023-11-21T02:26:52;11.20;99.90
73572;DHT22;61854;48.510;-2.770;2023-11-21T02:29:21;11.20;99.90
73572;DHT22;61854;48.510;-2.770;2023-11-21T02:31:54;11.20;99.90
73572;DHT22;61854;48.510;-2.770;2023-11-21T02:34:21;11.30;99.90
73572;DHT22;61854;48.510;-2.770;2023-11-21T02:36:47;11.30;99.90
73572;DHT22;61854;48.510;-2.770;2023-11-21T02:39:17;11.30;99.90
73572;DHT22;61854;48.510;-2.770;2023-11-21T02:41:43;11.20;99.90
73572;DHT22;61854;48.510;-2.770;2023-11-21T02:44:09;11.30;99.90
73572;DHT22;61854;48.510;-2.770;2023-11-21T02:46:36;11.30;99.90
73572;DHT22;61854;48.510;-2.770;2023-11-21T02:49:03;11.30;99.90
73572;DHT22;61854;48.510;-2.770;2023-11-21T02:51:30;11.40;99.90
73572;DHT22;61854;48.510;-2.770;2023-11-21T02:53:56;11.30;99.90
73572;DHT22;61854;48.510;-2.770;2023-11-21T02:56:26;11.30;99.90
73572;DHT22;61854;48.510;-2.770;2023-11-21T02:58:52;11.40;99.90
73572;DHT22;61854;48.510;-2.770;2023-11-21T03:01:18;11.30;99.90
73572;DHT22;61854;48.510;-2.770;2023-11-21T03:03:44;11.30;99.90
73572;DHT22;61854;48.510;-2.770;2023-11-21T03:06:09;11.40;99.90
73572;DHT22;61854;48.510;-2.770;2023-11-21T03:08:35;11.40;99.90
73572;DHT22;61854;48.510;-2.770;2023-11-21T03:11:01;11.40;99.90
73572;DHT22;61854;48.510;-2.770;2023-11-21T03:13:30;11.40;99.90
73572;DHT22;61854;48.510;-2.770;2023-11-21T03:15:55;11.40;99.90
73572;DHT22;61854;48.510;-2.770;2023-11-21T03:18:21;11.40;99.90
73572;DHT22;61854;48.510;-2.770;2023-11-21T03:20:52;11.40;99.90
73572;DHT22;61854;48.510;-2.770;2023-11-21T03:23:18;11.40;99.90
73572;DHT22;61854;48.510;-2.770;2023-11-21T03:25:44;11.40;99.90
73572;DHT22;61854;48.510;-2.770;2023-11-21T03:28:09;11.40;99.90
73572;DHT22;61854;48.510;-2.770;2023-11-21T03:30:35;11.40;99.90
73572;DHT22;61854;48.510;-2.770;2023-11-21T03:33:01;11.40;99.90
73572;DHT22;61854;48.510;-2.770;2023-11-21T03:35:26;11.40;99.90
73572;DHT22;61854;48.510;-2.770;2023-11-21T03:37:53;11.40;99.90
73572;DHT22;61854;48.510;-2.770;2023-11-21T03:40:22;11.40;99.90
73572;DHT22;61854;48.510;-2.770;2023-11-21T03:42:47;11.40;99.90
73572;DHT22;61854;48.510;-2.770;2023-11-21T03:45:13;11.40;99.90
73572;DHT22;61854;48.510;-2.770;2023-11-21T03:47:41;11.50;99.90
73572;DHT22;61854;48.510;-2.770;2023-11-21T03:50:07;11.50;99.90
73572;DHT22;61854;48.510;-2.770;2023-11-21T03:52:34;11.50;99.90
73572;DHT22;61854;48.510;-2.770;2023-11-21T03:55:00;11.50;99.90
73572;DHT22;61854;48.510;-2.770;2023-11-21T03:57:26;11.50;99.90
73572;DHT22;61854;48.510;-2.770;2023-11-21T03:59:53;11.50;99.90
73572;DHT22;61854;48.510;-2.770;2023-11-21T04:02:19;11.50;99.90
73572;DHT22;61854;48.510;-2.770;2023-11-21T04:04:44;11.40;99.90
73572;DHT22;61854;48.510;-2.770;2023-11-21T04:07:10;11.40;99.90
73572;DHT22;61854;48.510;-2.770;2023-11-21T04:09:36;11.50;99.90
73572;DHT22;61854;48.510;-2.770;2023-11-21T04:12:05;11.50;99.90
73572;DHT22;61854;48.510;-2.770;2023-11-21T04:14:31;11.50;99.90
73572;DHT22;61854;48.510;-2.770;2023-11-21T04:16:57;11.50;99.90
73572;DHT22;61854;48.510;-2.770;2023-11-21T04:19:22;11.50;99.90
73572;DHT22;61854;48.510;-2.770;2023-11-21T04:21:48;11.50;99.90
73572;DHT22;61854;48.510;-2.770;2023-11-21T04:24:14;11.50;99.90
73572;DHT22;61854;48.510;-2.770;2023-11-21T04:26:40;11.50;99.90
73572;DHT22;61854;48.510;-2.770;2023-11-21T04:29:05;11.50;99.90
73572;DHT22;61854;48.510;-2.770;2023-11-21T04:31:31;11.50;99.90
73572;DHT22;61854;48.510;-2.770;2023-11-21T04:33:57;11.50;99.90
73572;DHT22;61854;48.510;-2.770;2023-11-21T04:36:23;11.50;99.90
73572;DHT22;61854;48.510;-2.770;2023-11-21T04:38:48;11.50;99.90
73572;DHT22;61854;48.510;-2.770;2023-11-21T04:41:14;11.50;99.90
73572;DHT22;61854;48.510;-2.770;2023-11-21T04:43:39;11.50;99.90
73572;DHT22;61854;48.510;-2.770;2023-11-21T04:46:05;11.60;99.90
73572;DHT22;61854;48.510;-2.770;2023-11-21T04:48:32;11.50;99.90
73572;DHT22;61854;48.510;-2.770;2023-11-21T04:50:58;11.60;99.90
73572;DHT22;61854;48.510;-2.770;2023-11-21T04:53:24;11.50;99.90
73572;DHT22;61854;48.510;-2.770;2023-11-21T04:55:49;11.60;99.90
73572;DHT22;61854;48.510;-2.770;2023-11-21T04:58:15;11.50;99.90
73572;DHT22;61854;48.510;-2.770;2023-11-21T05:00:40;11.50;99.90
73572;DHT22;61854;48.510;-2.770;2023-11-21T05:03:07;11.60;99.90
73572;DHT22;61854;48.510;-2.770;2023-11-21T05:05:33;11.50;99.90
73572;DHT22;61854;48.510;-2.770;2023-11-21T05:07:59;11.50;99.90
73572;DHT22;61854;48.510;-2.770;2023-11-21T05:10:25;11.50;99.90
73572;DHT22;61854;48.510;-2.770;2023-11-21T05:12:50;11.50;99.90
73572;DHT22;61854;48.510;-2.770;2023-11-21T05:15:16;11.60;99.90
73572;DHT22;61854;48.510;-2.770;2023-11-21T05:17:43;11.50;99.90
73572;DHT22;61854;48.510;-2.770;2023-11-21T05:20:13;11.50;99.90
73572;DHT22;61854;48.510;-2.770;2023-11-21T05:22:40;11.40;99.90
73572;DHT22;61854;48.510;-2.770;2023-11-21T05:25:07;11.40;99.90
73572;DHT22;61854;48.510;-2.770;2023-11-21T05:27:34;11.40;99.90
73572;DHT22;61854;48.510;-2.770;2023-11-21T05:30:01;11.40;99.90
73572;DHT22;61854;48.510;-2.770;2023-11-21T05:32:28;11.40;99.90
73572;DHT22;61854;48.510;-2.770;2023-11-21T05:34:53;11.40;99.90
73572;DHT22;61854;48.510;-2.770;2023-11-21T05:37:19;11.40;99.90
73572;DHT22;61854;48.510;-2.770;2023-11-21T05:39:44;11.40;99.90
73572;DHT22;61854;48.510;-2.770;2023-11-21T05:42:10;11.50;99.90
73572;DHT22;61854;48.510;-2.770;2023-11-21T05:44:37;11.50;99.90
73572;DHT22;61854;48.510;-2.770;2023-11-21T05:47:02;11.50;99.90
73572;DHT22;61854;48.510;-2.770;2023-11-21T05:49:29;11.40;99.90
73572;DHT22;61854;48.510;-2.770;2023-11-21T05:51:55;11.40;99.90
73572;DHT22;61854;48.510;-2.770;2023-11-21T05:54:21;11.40;99.90
73572;DHT22;61854;48.510;-2.770;2023-11-21T05:56:47;11.40;99.90
73572;DHT22;61854;48.510;-2.770;2023-11-21T05:59:13;11.50;99.90
73572;DHT22;61854;48.510;-2.770;2023-11-21T06:01:39;11.50;99.90
73572;DHT22;61854;48.510;-2.770;2023-11-21T06:04:05;11.50;99.90
73572;DHT22;61854;48.510;-2.770;2023-11-21T06:06:30;11.50;99.90
73572;DHT22;61854;48.510;-2.770;2023-11-21T06:08:57;11.40;99.90
73572;DHT22;61854;48.510;-2.770;2023-11-21T06:11:22;11.40;99.90
73572;DHT22;61854;48.510;-2.770;2023-11-21T06:13:50;11.40;99.90
73572;DHT22;61854;48.510;-2.770;2023-11-21T06:16:15;11.40;99.90
73572;DHT22;61854;48.510;-2.770;2023-11-21T06:18:45;11.30;99.90
73572;DHT22;61854;48.510;-2.770;2023-11-21T06:21:11;11.30;99.90
73572;DHT22;61854;48.510;-2.770;2023-11-21T06:23:37;11.30;99.90
73572;DHT22;61854;48.510;-2.770;2023-11-21T06:26:03;11.30;99.90
73572;DHT22;61854;48.510;-2.770;2023-11-21T06:28:30;11.30;99.90
73572;DHT22;61854;48.510;-2.770;2023-11-21T06:30:56;11.30;99.90
73572;DHT22;61854;48.510;-2.770;2023-11-21T06:33:23;11.30;99.90
73572;DHT22;61854;48.510;-2.770;2023-11-21T06:35:49;11.30;99.90
73572;DHT22;61854;48.510;-2.770;2023-11-21T06:38:15;11.40;99.90
73572;DHT22;61854;48.510;-2.770;2023-11-21T06:40:43;11.40;99.90
73572;DHT22;61854;48.510;-2.770;2023-11-21T06:43:10;11.40;99.90
73572;DHT22;61854;48.510;-2.770;2023-11-21T06:45:36;11.40;99.90
73572;DHT22;61854;48.510;-2.770;2023-11-21T06:48:02;11.30;99.90
73572;DHT22;61854;48.510;-2.770;2023-11-21T06:50:27;11.30;99.90
73572;DHT22;61854;48.510;-2.770;2023-11-21T06:52:53;11.30;99.90
73572;DHT22;61854;48.510;-2.770;2023-11-21T06:55:19;11.40;99.90
73572;DHT22;61854;48.510;-2.770;2023-11-21T06:57:44;11.30;99.90
73572;DHT22;61854;48.510;-2.770;2023-11-21T07:00:10;11.40;99.90
73572;DHT22;61854;48.510;-2.770;2023-11-21T07:02:37;11.40;99.90
73572;DHT22;61854;48.510;-2.770;2023-11-21T07:05:03;11.40;99.90
73572;DHT22;61854;48.510;-2.770;2023-11-21T07:07:29;11.40;99.90
73572;DHT22;61854;48.510;-2.770;2023-11-21T07:09:55;11.40;99.90
73572;DHT22;61854;48.510;-2.770;2023-11-21T07:12:20;11.40;99.90
73572;DHT22;61854;48.510;-2.770;2023-11-21T07:14:49;11.40;99.90
73572;DHT22;61854;48.510;-2.770;2023-11-21T07:17:14;11.40;99.90
73572;DHT22;61854;48.510;-2.770;2023-11-21T07:19:41;11.40;99.90
73572;DHT22;61854;48.510;-2.770;2023-11-21T07:22:07;11.40;99.90
73572;DHT22;61854;48.510;-2.770;2023-11-21T07:24:34;11.40;99.90
73572;DHT22;61854;48.510;-2.770;2023-11-21T07:26:59;11.40;99.90
73572;DHT22;61854;48.510;-2.770;2023-11-21T07:29:26;11.40;99.90
73572;DHT22;61854;48.510;-2.770;2023-11-21T07:31:52;11.30;99.90
73572;DHT22;61854;48.510;-2.770;2023-11-21T07:34:20;11.30;99.90
73572;DHT22;61854;48.510;-2.770;2023-11-21T07:36:46;11.30;99.90
73572;DHT22;61854;48.510;-2.770;2023-11-21T07:39:11;11.30;99.90
73572;DHT22;61854;48.510;-2.770;2023-11-21T07:41:37;11.30;99.90
73572;DHT22;61854;48.510;-2.770;2023-11-21T07:44:04;11.30;99.90
73572;DHT22;61854;48.510;-2.770;2023-11-21T07:46:30;11.30;99.90
73572;DHT22;61854;48.510;-2.770;2023-11-21T07:48:56;11.30;99.90
73572;DHT22;61854;48.510;-2.770;2023-11-21T07:51:21;11.40;99.90
73572;DHT22;61854;48.510;-2.770;2023-11-21T07:53:47;11.30;99.90
73572;DHT22;61854;48.510;-2.770;2023-11-21T07:56:13;11.40;99.90
73572;DHT22;61854;48.510;-2.770;2023-11-21T07:58:38;11.40;99.90
73572;DHT22;61854;48.510;-2.770;2023-11-21T08:01:04;11.40;99.90
73572;DHT22;61854;48.510;-2.770;2023-11-21T08:03:30;11.60;99.90
73572;DHT22;61854;48.510;-2.770;2023-11-21T08:05:57;11.70;99.90
73572;DHT22;61854;48.510;-2.770;2023-11-21T08:08:23;11.80;99.90
73572;DHT22;61854;48.510;-2.770;2023-11-21T08:10:50;11.70;99.90
73572;DHT22;61854;48.510;-2.770;2023-11-21T08:13:28;11.60;99.90
73572;DHT22;61854;48.510;-2.770;2023-11-21T08:15:56;11.60;99.90
73572;DHT22;61854;48.510;-2.770;2023-11-21T08:18:23;11.60;99.90
73572;DHT22;61854;48.510;-2.770;2023-11-21T08:20:50;11.70;99.90
73572;DHT22;61854;48.510;-2.770;2023-11-21T08:23:16;11.70;99.90
73572;DHT22;61854;48.510;-2.770;2023-11-21T08:25:44;11.80;99.90
73572;DHT22;61854;48.510;-2.770;2023-11-21T08:28:10;11.80;99.90
73572;DHT22;61854;48.510;-2.770;2023-11-21T08:30:35;11.80;99.90
73572;DHT22;61854;48.510;-2.770;2023-11-21T08:33:01;11.80;99.90
73572;DHT22;61854;48.510;-2.770;2023-11-21T08:35:29;11.80;99.90
73572;DHT22;61854;48.510;-2.770;2023-11-21T08:37:54;11.80;99.90
73572;DHT22;61854;48.510;-2.770;2023-11-21T08:40:20;11.80;99.90
73572;DHT22;61854;48.510;-2.770;2023-11-21T08:42:46;11.70;99.90
73572;DHT22;61854;48.510;-2.770;2023-11-21T08:45:14;11.60;99.90
73572;DHT22;61854;48.510;-2.770;2023-11-21T08:47:39;11.60;99.90
73572;DHT22;61854;48.510;-2.770;2023-11-21T08:50:06;11.50;99.90
73572;DHT22;61854;48.510;-2.770;2023-11-21T08:52:33;11.50;99.90
73572;DHT22;61854;48.510;-2.770;2023-11-21T08:54:59;11.60;99.90
73572;DHT22;61854;48.510;-2.770;2023-11-21T08:57:28;11.50;99.90
73572;DHT22;61854;48.510;-2.770;2023-11-21T08:59:54;11.60;99.90
73572;DHT22;61854;48.510;-2.770;2023-11-21T09:02:25;11.60;99.90
73572;DHT22;61854;48.510;-2.770;2023-11-21T09:04:51;11.60;99.90
73572;DHT22;61854;48.510;-2.770;2023-11-21T09:07:21;11.60;99.90
73572;DHT22;61854;48.510;-2.770;2023-11-21T09:09:47;11.70;99.90
73572;DHT22;61854;48.510;-2.770;2023-11-21T09:12:13;11.80;99.90
73572;DHT22;61854;48.510;-2.770;2023-11-21T09:14:39;11.90;99.90
73572;DHT22;61854;48.510;-2.770;2023-11-21T09:17:05;11.80;99.90
73572;DHT22;61854;48.510;-2.770;2023-11-21T09:19:37;11.80;99.90
73572;DHT22;61854;48.510;-2.770;2023-11-21T09:22:04;11.70;99.90
73572;DHT22;61854;48.510;-2.770;2023-11-21T09:24:31;11.70;99.90
73572;DHT22;61854;48.510;-2.770;2023-11-21T09:26:57;11.60;99.90
73572;DHT22;61854;48.510;-2.770;2023-11-21T09:29:23;11.60;99.90
73572;DHT22;61854;48.510;-2.770;2023-11-21T09:31:49;11.60;99.90
73572;DHT22;61854;48.510;-2.770;2023-11-21T09:34:17;11.60;99.90
73572;DHT22;61854;48.510;-2.770;2023-11-21T09:36:45;11.60;99.90
73572;DHT22;61854;48.510;-2.770;2023-11-21T09:39:11;11.60;99.90
73572;DHT22;61854;48.510;-2.770;2023-11-21T09:41:52;11.70;99.90
73572;DHT22;61854;48.510;-2.770;2023-11-21T09:47:05;11.60;99.90
73572;DHT22;61854;48.510;-2.770;2023-11-21T09:49:37;11.60;99.90
73572;DHT22;61854;48.510;-2.770;2023-11-21T09:52:04;11.50;99.90
73572;DHT22;61854;48.510;-2.770;2023-11-21T09:54:32;11.40;99.90
73572;DHT22;61854;48.510;-2.770;2023-11-21T09:56:59;11.50;99.90
73572;DHT22;61854;48.510;-2.770;2023-11-21T09:59:30;11.60;99.90
73572;DHT22;61854;48.510;-2.770;2023-11-21T10:01:58;11.60;99.90
73572;DHT22;61854;48.510;-2.770;2023-11-21T10:04:24;11.70;99.90
73572;DHT22;61854;48.510;-2.770;2023-11-21T10:06:50;11.70;99.90
73572;DHT22;61854;48.510;-2.770;2023-11-21T10:09:17;11.70;99.90
73572;DHT22;61854;48.510;-2.770;2023-11-21T10:11:47;11.70;99.90
73572;DHT22;61854;48.510;-2.770;2023-11-21T10:14:17;11.60;99.90
73572;DHT22;61854;48.510;-2.770;2023-11-21T10:16:44;11.60;99.90
73572;DHT22;61854;48.510;-2.770;2023-11-21T10:19:13;11.70;99.90
73572;DHT22;61854;48.510;-2.770;2023-11-21T10:21:41;11.70;99.90
73572;DHT22;61854;48.510;-2.770;2023-11-21T10:24:07;11.80;99.90
73572;DHT22;61854;48.510;-2.770;2023-11-21T10:26:33;11.80;99.90
73572;DHT22;61854;48.510;-2.770;2023-11-21T10:29:01;11.90;99.90
73572;DHT22;61854;48.510;-2.770;2023-11-21T10:31:31;11.90;99.90
73572;DHT22;61854;48.510;-2.770;2023-11-21T10:34:18;11.90;99.90
73572;DHT22;61854;48.510;-2.770;2023-11-21T10:36:45;12.00;99.90
73572;DHT22;61854;48.510;-2.770;2023-11-21T10:39:17;12.10;99.90
73572;DHT22;61854;48.510;-2.770;2023-11-21T10:41:45;12.10;99.90
73572;DHT22;61854;48.510;-2.770;2023-11-21T10:44:14;12.20;99.90
73572;DHT22;61854;48.510;-2.770;2023-11-21T10:46:46;12.20;99.90
73572;DHT22;61854;48.510;-2.770;2023-11-21T10:49:22;12.20;99.90
73572;DHT22;61854;48.510;-2.770;2023-11-21T10:51:51;12.20;99.90
73572;DHT22;61854;48.510;-2.770;2023-11-21T10:54:22;12.10;99.90
73572;DHT22;61854;48.510;-2.770;2023-11-21T10:56:59;12.00;99.90
73572;DHT22;61854;48.510;-2.770;2023-11-21T10:59:28;12.00;99.90
73572;DHT22;61854;48.510;-2.770;2023-11-21T11:01:57;12.00;99.90
73572;DHT22;61854;48.510;-2.770;2023-11-21T11:04:23;12.00;99.90
73572;DHT22;61854;48.510;-2.770;2023-11-21T11:07:03;12.10;99.90
73572;DHT22;61854;48.510;-2.770;2023-11-21T11:09:33;12.10;99.90
73572;DHT22;61854;48.510;-2.770;2023-11-21T11:12:05;12.20;99.90
73572;DHT22;61854;48.510;-2.770;2023-11-21T11:14:32;12.20;99.90
73572;DHT22;61854;48.510;-2.770;2023-11-21T11:16:58;12.20;99.90
73572;DHT22;61854;48.510;-2.770;2023-11-21T11:19:25;12.20;99.90
73572;DHT22;61854;48.510;-2.770;2023-11-21T11:26:58;12.10;99.90
73572;DHT22;61854;48.510;-2.770;2023-11-21T11:29:42;12.10;99.90
73572;DHT22;61854;48.510;-2.770;2023-11-21T11:32:27;12.10;99.90
73572;DHT22;61854;48.510;-2.770;2023-11-21T11:35:16;12.10;99.90
73572;DHT22;61854;48.510;-2.770;2023-11-21T11:37:43;12.00;99.90
73572;DHT22;61854;48.510;-2.770;2023-11-21T11:40:11;12.00;99.90
73572;DHT22;61854;48.510;-2.770;2023-11-21T11:42:37;12.10;99.90
73572;DHT22;61854;48.510;-2.770;2023-11-21T11:45:17;12.20;99.90
73572;DHT22;61854;48.510;-2.770;2023-11-21T11:47:43;12.20;99.90
73572;DHT22;61854;48.510;-2.770;2023-11-21T11:50:11;12.20;99.90
73572;DHT22;61854;48.510;-2.770;2023-11-21T11:52:47;12.20;99.90
73572;DHT22;61854;48.510;-2.770;2023-11-21T11:55:15;12.20;99.90
73572;DHT22;61854;48.510;-2.770;2023-11-21T11:57:45;12.10;99.90
73572;DHT22;61854;48.510;-2.770;2023-11-21T12:00:19;12.20;99.90
73572;DHT22;61854;48.510;-2.770;2023-11-21T12:02:50;12.10;99.90
73572;DHT22;61854;48.510;-2.770;2023-11-21T12:05:18;12.10;99.90
73572;DHT22;61854;48.510;-2.770;2023-11-21T12:07:46;12.20;99.90
73572;DHT22;61854;48.510;-2.770;2023-11-21T12:10:17;12.20;99.90
73572;DHT22;61854;48.510;-2.770;2023-11-21T12:12:54;12.20;99.90
73572;DHT22;61854;48.510;-2.770;2023-11-21T12:15:20;12.30;99.90
73572;DHT22;61854;48.510;-2.770;2023-11-21T12:17:47;12.30;99.90
73572;DHT22;61854;48.510;-2.770;2023-11-21T12:20:24;12.30;99.90
73572;DHT22;61854;48.510;-2.770;2023-11-21T12:22:54;12.30;99.90
73572;DHT22;61854;48.510;-2.770;2023-11-21T12:25:26;12.30;99.90
73572;DHT22;61854;48.510;-2.770;2023-11-21T12:27:55;12.30;99.90
73572;DHT22;61854;48.510;-2.770;2023-11-21T12:30:23;12.20;99.90
73572;DHT22;61854;48.510;-2.770;2023-11-21T12:32:51;12.30;99.90
73572;DHT22;61854;48.510;-2.770;2023-11-21T12:35:18;12.30;99.90
73572;DHT22;61854;48.510;-2.770;2023-11-21T12:37:47;12.20;99.90
73572;DHT22;61854;48.510;-2.770;2023-11-21T12:40:14;12.20;99.90
73572;DHT22;61854;48.510;-2.770;2023-11-21T12:42:52;12.20;99.90
73572;DHT22;61854;48.510;-2.770;2023-11-21T12:45:28;12.20;99.90
73572;DHT22;61854;48.510;-2.770;2023-11-21T12:48:00;12.10;99.90
73572;DHT22;61854;48.510;-2.770;2023-11-21T12:50:29;12.10;99.90
73572;DHT22;61854;48.510;-2.770;2023-11-21T12:53:05;12.10;99.90
73572;DHT22;61854;48.510;-2.770;2023-11-21T12:55:32;12.00;99.90
73572;DHT22;61854;48.510;-2.770;2023-11-21T12:58:00;12.10;99.90
73572;DHT22;61854;48.510;-2.770;2023-11-21T13:00:36;12.00;99.90
73572;DHT22;61854;48.510;-2.770;2023-11-21T13:03:06;12.00;99.90
73572;DHT22;61854;48.510;-2.770;2023-11-21T13:05:36;12.00;99.90
73572;DHT22;61854;48.510;-2.770;2023-11-21T13:08:08;11.90;99.90
73572;DHT22;61854;48.510;-2.770;2023-11-21T13:10:37;12.00;99.90
73572;DHT22;61854;48.510;-2.770;2023-11-21T13:13:05;11.90;99.90
73572;DHT22;61854;48.510;-2.770;2023-11-21T13:15:34;11.90;99.90
73572;DHT22;61854;48.510;-2.770;2023-11-21T13:18:02;11.90;99.90
73572;DHT22;61854;48.510;-2.770;2023-11-21T13:20:29;11.90;99.90
73572;DHT22;61854;48.510;-2.770;2023-11-21T13:22:58;11.90;99.90
73572;DHT22;61854;48.510;-2.770;2023-11-21T13:25:30;11.90;99.90
73572;DHT22;61854;48.510;-2.770;2023-11-21T13:28:00;11.80;99.90
73572;DHT22;61854;48.510;-2.770;2023-11-21T13:30:28;11.90;99.90
73572;DHT22;61854;48.510;-2.770;2023-11-21T13:33:04;11.90;99.90
73572;DHT22;61854;48.510;-2.770;2023-11-21T13:35:38;11.90;99.90
73572;DHT22;61854;48.510;-2.770;2023-11-21T13:38:18;11.80;99.90
73572;DHT22;61854;48.510;-2.770;2023-11-21T13:40:53;11.70;99.90
73572;DHT22;61854;48.510;-2.770;2023-11-21T13:43:22;11.80;99.90
73572;DHT22;61854;48.510;-2.770;2023-11-21T13:45:50;11.70;99.90
73572;DHT22;61854;48.510;-2.770;2023-11-21T13:48:21;11.70;99.90
73572;DHT22;61854;48.510;-2.770;2023-11-21T13:50:53;11.70;99.90
73572;DHT22;61854;48.510;-2.770;2023-11-21T13:53:25;11.60;99.90
73572;DHT22;61854;48.510;-2.770;2023-11-21T13:55:51;11.60;99.90
73572;DHT22;61854;48.510;-2.770;2023-11-21T13:58:20;11.60;99.90
73572;DHT22;61854;48.510;-2.770;2023-11-21T14:00:54;11.60;99.90
73572;DHT22;61854;48.510;-2.770;2023-11-21T14:03:22;11.60;99.90
73572;DHT22;61854;48.510;-2.770;2023-11-21T14:05:51;11.60;99.90
73572;DHT22;61854;48.510;-2.770;2023-11-21T14:08:20;11.60;99.90
73572;DHT22;61854;48.510;-2.770;2023-11-21T14:10:47;11.60;99.90
73572;DHT22;61854;48.510;-2.770;2023-11-21T14:13:19;11.50;99.90
73572;DHT22;61854;48.510;-2.770;2023-11-21T14:15:48;11.50;99.90
73572;DHT22;61854;48.510;-2.770;2023-11-21T14:18:16;11.60;99.90
73572;DHT22;61854;48.510;-2.770;2023-11-21T14:20:43;11.50;99.90
73572;DHT22;61854;48.510;-2.770;2023-11-21T14:23:10;11.50;99.90
73572;DHT22;61854;48.510;-2.770;2023-11-21T14:25:37;11.50;99.90
73572;DHT22;61854;48.510;-2.770;2023-11-21T14:28:05;11.50;99.90
73572;DHT22;61854;48.510;-2.770;2023-11-21T14:30:34;11.50;99.90
73572;DHT22;61854;48.510;-2.770;2023-11-21T14:33:02;11.50;99.90
73572;DHT22;61854;48.510;-2.770;2023-11-21T14:35:28;11.50;99.90
73572;DHT22;61854;48.510;-2.770;2023-11-21T14:38:00;11.50;99.90
73572;DHT22;61854;48.510;-2.770;2023-11-21T14:40:28;11.50;99.90
73572;DHT22;61854;48.510;-2.770;2023-11-21T14:43:04;11.40;99.90
73572;DHT22;61854;48.510;-2.770;2023-11-21T14:45:33;11.40;99.90
73572;DHT22;61854;48.510;-2.770;2023-11-21T14:48:00;11.40;99.90
73572;DHT22;61854;48.510;-2.770;2023-11-21T14:50:37;11.40;99.90
73572;DHT22;61854;48.510;-2.770;2023-11-21T14:53:12;11.40;99.90
73572;DHT22;61854;48.510;-2.770;2023-11-21T14:55:41;11.40;99.90
73572;DHT22;61854;48.510;-2.770;2023-11-21T14:58:06;11.40;99.90
73572;DHT22;61854;48.510;-2.770;2023-11-21T15:00:38;11.40;99.90
73572;DHT22;61854;48.510;-2.770;2023-11-21T15:03:10;11.40;99.90
73572;DHT22;61854;48.510;-2.770;2023-11-21T15:05:43;11.30;99.90
73572;DHT22;61854;48.510;-2.770;2023-11-21T15:08:09;11.40;99.90
73572;DHT22;61854;48.510;-2.770;2023-11-21T15:10:51;11.40;99.90
73572;DHT22;61854;48.510;-2.770;2023-11-21T15:13:21;11.40;99.90
73572;DHT22;61854;48.510;-2.770;2023-11-21T15:15:53;11.30;99.90
73572;DHT22;61854;48.510;-2.770;2023-11-21T15:18:21;11.30;99.90
73572;DHT22;61854;48.510;-2.770;2023-11-21T15:20:47;11.40;99.90
73572;DHT22;61854;48.510;-2.770;2023-11-21T15:23:13;11.40;99.90
73572;DHT22;61854;48.510;-2.770;2023-11-21T15:25:39;11.30;99.90